Time;durP1;ratioP1;P1;durP2;ratioP2;P2;SDS_P1;SDS_P2;PMS_P1;PMS_P2;Temp;Humidity;BMP_temperature;BMP_pressure;BME280_temperature;BME280_humidity;BME280_pressure;Samples;Min_cycle;Max_cycle;Signal;HPM_P1;HPM_P2
2022/02/26 00:00:21;;;;;;;9.70;4.43;;;3.90;99.90;;;;;;5027277;28;20481;-70
2022/02/26 00:02:48;;;;;;;6.33;4.33;;;4.00;99.90;;;;;;5027195;28;20522;-68
2022/02/26 00:05:14;;;;;;;7.10;4.43;;;4.00;99.90;;;;;;5026353;28;20800;-69
2022/02/26 00:07:41;;;;;;;12.37;5.30;;;4.00;99.90;;;;;;5026246;28;20460;-69
2022/02/26 00:10:10;;;;;;;5.40;3.90;;;4.00;99.90;;;;;;5027350;28;20571;-68
2022/02/26 00:12:37;;;;;;;8.40;4.30;;;4.00;99.90;;;;;;5026918;28;20453;-71
2022/02/26 00:15:05;;;;;;;4.77;4.00;;;4.00;99.90;;;;;;5021065;28;20480;-69
2022/02/26 00:17:33;;;;;;;5.90;4.73;;;4.10;99.90;;;;;;5020355;28;20453;-68
2022/02/26 00:20:00;;;;;;;8.77;4.00;;;4.20;99.90;;;;;;5026632;28;20472;-69
2022/02/26 00:22:27;;;;;;;8.57;3.80;;;4.20;99.90;;;;;;5026037;28;20540;-71
2022/02/26 00:24:54;;;;;;;6.73;4.17;;;4.20;99.90;;;;;;5026522;28;20456;-69
2022/02/26 00:27:22;;;;;;;6.77;4.07;;;4.30;99.90;;;;;;5026900;28;20449;-69
2022/02/26 00:29:49;;;;;;;7.67;4.33;;;4.20;99.90;;;;;;5026668;28;20491;-69
2022/02/26 00:32:16;;;;;;;7.50;4.53;;;4.20;99.90;;;;;;5026945;28;20445;-70
2022/02/26 00:34:42;;;;;;;9.00;4.60;;;4.20;99.90;;;;;;5026199;28;20445;-69
2022/02/26 00:37:09;;;;;;;7.07;4.67;;;4.20;99.90;;;;;;5026949;28;20552;-69
2022/02/26 00:39:36;;;;;;;8.37;4.53;;;4.30;99.90;;;;;;5026718;28;20471;-69
2022/02/26 00:42:04;;;;;;;8.77;4.57;;;4.20;99.90;;;;;;5026919;28;20825;-69
2022/02/26 00:44:32;;;;;;;6.50;3.70;;;4.20;99.90;;;;;;5026227;28;20942;-69
2022/02/26 00:46:59;;;;;;;6.03;4.13;;;4.20;99.90;;;;;;5026865;28;20455;-70
2022/02/26 00:52:10;;;;;;;6.60;3.70;;;4.20;99.90;;;;;;5026871;28;20440;-69
2022/02/26 00:54:37;;;;;;;7.63;3.83;;;4.20;99.90;;;;;;5025883;28;20444;-69
2022/02/26 00:57:04;;;;;;;6.57;4.37;;;4.30;99.90;;;;;;5026861;28;20444;-69
2022/02/26 00:59:32;;;;;;;6.87;4.77;;;4.30;99.90;;;;;;5022578;28;20481;-69
2022/02/26 01:01:59;;;;;;;7.03;3.87;;;4.30;99.90;;;;;;5026175;28;20455;-70
2022/02/26 01:04:26;;;;;;;10.53;4.20;;;4.30;99.90;;;;;;5028215;28;20829;-69
2022/02/26 01:06:53;;;;;;;9.03;4.27;;;4.30;99.90;;;;;;5028398;28;20961;-70
2022/02/26 01:09:20;;;;;;;12.20;3.97;;;4.30;99.90;;;;;;5027777;28;20548;-69
2022/02/26 01:11:47;;;;;;;5.43;3.93;;;4.30;99.90;;;;;;5028916;28;20448;-69
2022/02/26 01:14:14;;;;;;;10.50;4.03;;;4.30;99.90;;;;;;5028811;28;20449;-70
2022/02/26 01:16:42;;;;;;;8.93;4.43;;;4.30;99.90;;;;;;5030029;28;20463;-69
2022/02/26 01:19:09;;;;;;;11.60;4.43;;;4.30;99.90;;;;;;5033535;28;20462;-69
2022/02/26 01:21:36;;;;;;;7.47;4.40;;;4.30;99.90;;;;;;5033348;28;20444;-69
2022/02/26 01:24:03;;;;;;;11.23;4.57;;;4.30;99.90;;;;;;5033130;28;20458;-68
2022/02/26 01:26:30;;;;;;;7.70;4.03;;;4.40;99.90;;;;;;5033156;28;20463;-69
2022/02/26 01:28:58;;;;;;;5.27;3.40;;;4.40;99.90;;;;;;5033152;28;20562;-69
2022/02/26 01:31:24;;;;;;;7.13;4.10;;;4.40;99.90;;;;;;5032946;28;20493;-69
2022/02/26 01:33:53;;;;;;;7.73;4.50;;;4.30;99.90;;;;;;5033082;28;20535;-69
2022/02/26 01:36:19;;;;;;;6.50;3.83;;;4.30;99.90;;;;;;5032786;28;20449;-70
2022/02/26 01:38:46;;;;;;;9.60;4.63;;;4.30;99.90;;;;;;5033173;28;20447;-69
2022/02/26 01:41:13;;;;;;;11.10;3.83;;;4.30;99.90;;;;;;5032658;28;20460;-69
2022/02/26 01:43:40;;;;;;;5.50;4.10;;;4.30;99.90;;;;;;5032662;28;20484;-69
2022/02/26 01:46:10;;;;;;;9.97;4.27;;;4.30;99.90;;;;;;5030566;28;20453;-68
2022/02/26 01:48:37;;;;;;;6.40;3.90;;;4.30;99.90;;;;;;5033246;28;20481;-68
2022/02/26 01:51:07;;;;;;;8.43;3.70;;;4.40;99.90;;;;;;5032154;28;20484;-69
2022/02/26 01:53:34;;;;;;;6.80;3.90;;;4.40;99.90;;;;;;5040209;28;20445;-69
2022/02/26 01:56:03;;;;;;;8.80;4.10;;;4.30;99.90;;;;;;5032127;28;20452;-69
2022/02/26 01:58:30;;;;;;;7.63;4.03;;;4.30;99.90;;;;;;5032755;28;20452;-69
2022/02/26 02:00:57;;;;;;;4.77;3.60;;;4.10;99.90;;;;;;5032735;28;20473;-69
2022/02/26 02:03:23;;;;;;;5.87;3.90;;;4.10;99.90;;;;;;5032559;28;20524;-69
2022/02/26 02:05:51;;;;;;;7.97;4.03;;;4.00;99.90;;;;;;5032476;28;20476;-70
2022/02/26 02:08:19;;;;;;;9.80;4.77;;;4.00;99.90;;;;;;5032624;28;20516;-68
2022/02/26 02:10:46;;;;;;;7.67;4.87;;;4.00;99.90;;;;;;5032476;28;20880;-69
2022/02/26 02:13:15;;;;;;;6.60;4.73;;;3.90;99.90;;;;;;5032753;28;20455;-68
2022/02/26 02:15:43;;;;;;;7.87;4.10;;;4.00;99.90;;;;;;5032108;28;20552;-68
2022/02/26 02:18:11;;;;;;;7.30;4.80;;;4.00;99.90;;;;;;5032511;28;20453;-70
2022/02/26 02:20:40;;;;;;;9.80;4.70;;;4.00;99.90;;;;;;5032345;28;20465;-70
2022/02/26 02:23:08;;;;;;;7.03;4.23;;;4.00;99.90;;;;;;5032120;28;20441;-68
2022/02/26 02:25:37;;;;;;;7.57;4.20;;;4.00;99.90;;;;;;5031881;28;20982;-69
2022/02/26 02:28:06;;;;;;;9.03;5.30;;;4.00;99.90;;;;;;5032258;28;20440;-68
2022/02/26 02:30:33;;;;;;;7.67;4.80;;;4.10;99.90;;;;;;5031940;28;20862;-69
2022/02/26 02:33:01;;;;;;;5.83;4.37;;;4.00;99.90;;;;;;5032015;28;20452;-68
2022/02/26 02:35:30;;;;;;;8.57;4.90;;;4.00;99.90;;;;;;5031634;28;20463;-68
2022/02/26 02:37:58;;;;;;;9.73;5.27;;;4.00;99.90;;;;;;5031809;28;20456;-68
2022/02/26 02:40:26;;;;;;;7.37;4.30;;;4.00;99.90;;;;;;5031956;28;20456;-68
2022/02/26 02:42:54;;;;;;;9.60;5.13;;;3.90;99.90;;;;;;5032080;28;20448;-68
2022/02/26 02:45:21;;;;;;;10.40;5.17;;;4.00;99.90;;;;;;5031703;28;20445;-68
2022/02/26 02:47:49;;;;;;;7.70;4.93;;;4.00;99.90;;;;;;5031847;28;20451;-69
2022/02/26 02:50:16;;;;;;;9.17;5.93;;;3.90;99.90;;;;;;5031355;28;20493;-69
2022/02/26 02:52:44;;;;;;;9.20;5.63;;;3.90;99.90;;;;;;5031773;28;20452;-68
2022/02/26 02:55:12;;;;;;;6.00;4.63;;;3.80;99.90;;;;;;5031342;28;20583;-68
2022/02/26 02:57:41;;;;;;;6.70;4.63;;;3.80;99.90;;;;;;5031567;28;20452;-68
2022/02/26 03:00:09;;;;;;;11.83;6.27;;;3.80;99.90;;;;;;5031246;28;20467;-68
2022/02/26 03:02:36;;;;;;;11.43;5.93;;;3.90;99.90;;;;;;5031504;28;20453;-69
2022/02/26 03:05:03;;;;;;;6.70;4.30;;;3.90;99.90;;;;;;5031401;28;20440;-68
2022/02/26 03:07:30;;;;;;;12.60;5.73;;;3.90;99.90;;;;;;5031491;28;20448;-69
2022/02/26 03:09:57;;;;;;;10.93;5.57;;;3.90;99.90;;;;;;5030947;28;21001;-68
2022/02/26 03:12:24;;;;;;;8.40;5.10;;;3.90;99.90;;;;;;5031347;28;20440;-68
2022/02/26 03:14:52;;;;;;;10.60;5.50;;;3.90;99.90;;;;;;5030853;28;20449;-69
2022/02/26 03:17:19;;;;;;;7.10;5.57;;;3.90;99.90;;;;;;5031195;28;20464;-68
2022/02/26 03:19:49;;;;;;;18.03;7.13;;;3.90;99.90;;;;;;5031032;28;20460;-68
2022/02/26 03:22:16;;;;;;;9.53;6.70;;;3.80;99.90;;;;;;5030955;28;20555;-68
2022/02/26 03:24:43;;;;;;;9.23;5.40;;;3.80;99.90;;;;;;5030711;28;20463;-69
2022/02/26 03:27:10;;;;;;;8.03;5.33;;;3.80;99.90;;;;;;5031056;28;20441;-69
2022/02/26 03:29:37;;;;;;;8.60;5.40;;;3.80;99.90;;;;;;5030749;28;20507;-69
2022/02/26 03:32:06;;;;;;;8.30;5.70;;;3.70;99.90;;;;;;5030912;28;20492;-68
2022/02/26 03:34:33;;;;;;;8.63;6.10;;;3.80;99.90;;;;;;5030451;28;20453;-68
2022/02/26 03:37:01;;;;;;;7.80;5.23;;;3.80;99.90;;;;;;5030679;28;20480;-69
2022/02/26 03:39:31;;;;;;;10.10;4.93;;;3.80;99.90;;;;;;5030231;28;20556;-68
2022/02/26 03:41:59;;;;;;;10.43;6.37;;;3.80;99.90;;;;;;5030772;28;20437;-69
2022/02/26 03:44:26;;;;;;;7.77;5.67;;;3.80;99.90;;;;;;5030369;28;20453;-68
2022/02/26 03:46:53;;;;;;;11.50;5.90;;;3.80;99.90;;;;;;5030519;28;20456;-68
2022/02/26 03:49:21;;;;;;;8.80;6.07;;;3.80;99.90;;;;;;5030652;28;20449;-68
2022/02/26 03:51:48;;;;;;;12.87;6.67;;;3.80;99.90;;;;;;5030466;28;20493;-68
2022/02/26 03:54:15;;;;;;;15.63;6.80;;;3.80;99.90;;;;;;5030223;28;20445;-68
2022/02/26 03:56:42;;;;;;;13.23;6.83;;;3.70;99.90;;;;;;5030697;28;20811;-69
2022/02/26 03:59:09;;;;;;;12.13;5.97;;;3.70;99.90;;;;;;5030256;28;20445;-68
2022/02/26 04:01:36;;;;;;;12.00;6.20;;;3.70;99.90;;;;;;5030418;28;20441;-68
2022/02/26 04:04:03;;;;;;;11.60;6.83;;;3.70;99.90;;;;;;5030449;28;20445;-70
2022/02/26 04:06:31;;;;;;;10.07;6.30;;;3.70;99.90;;;;;;5030723;28;20457;-71
2022/02/26 04:08:58;;;;;;;12.23;7.23;;;3.70;99.90;;;;;;5030380;28;20444;-70
2022/02/26 04:11:25;;;;;;;12.53;6.80;;;3.70;99.90;;;;;;5030193;28;20588;-68
2022/02/26 04:13:52;;;;;;;9.37;7.97;;;3.60;99.90;;;;;;5030402;28;20544;-69
2022/02/26 04:16:19;;;;;;;13.90;7.00;;;3.60;99.90;;;;;;5030330;28;20528;-68
2022/02/26 04:18:46;;;;;;;14.20;6.60;;;3.60;99.90;;;;;;5030125;28;20456;-68
2022/02/26 04:21:13;;;;;;;9.37;6.67;;;3.60;99.90;;;;;;5030036;28;20548;-68
2022/02/26 04:23:41;;;;;;;10.57;6.17;;;3.60;99.90;;;;;;5029948;28;20545;-68
2022/02/26 04:26:08;;;;;;;14.13;6.83;;;3.60;99.90;;;;;;5029615;28;20452;-68
2022/02/26 04:28:35;;;;;;;10.47;6.77;;;3.50;99.90;;;;;;5029979;28;20460;-68
2022/02/26 04:31:02;;;;;;;18.57;9.60;;;3.50;99.90;;;;;;5029885;28;20865;-68
2022/02/26 04:33:29;;;;;;;11.43;7.37;;;3.50;99.90;;;;;;5029881;28;20969;-69
2022/02/26 04:35:58;;;;;;;11.80;7.67;;;3.60;99.90;;;;;;5029684;28;20459;-68
2022/02/26 04:38:25;;;;;;;13.87;7.10;;;3.60;99.90;;;;;;5029901;28;20457;-68
2022/02/26 04:40:53;;;;;;;13.17;6.87;;;3.50;99.90;;;;;;5029612;28;20468;-68
2022/02/26 04:43:20;;;;;;;13.43;6.73;;;3.50;99.90;;;;;;5029755;28;20455;-68
2022/02/26 04:45:47;;;;;;;11.90;8.10;;;3.60;99.90;;;;;;5029350;28;20449;-69
2022/02/26 04:48:14;;;;;;;10.70;6.53;;;3.70;99.90;;;;;;5029664;28;20548;-68
2022/02/26 04:50:40;;;;;;;15.47;8.07;;;3.60;99.90;;;;;;5029598;28;20491;-68
2022/02/26 04:53:07;;;;;;;13.83;7.50;;;3.60;99.90;;;;;;5032996;28;20822;-68
2022/02/26 04:55:34;;;;;;;12.90;6.30;;;3.70;99.90;;;;;;5033452;28;20437;-68
2022/02/26 04:58:03;;;;;;;13.80;8.20;;;3.60;99.90;;;;;;5033992;28;20498;-68
2022/02/26 05:00:30;;;;;;;13.50;6.93;;;3.60;99.90;;;;;;5033841;28;20473;-68
2022/02/26 05:02:57;;;;;;;13.90;7.17;;;3.60;99.90;;;;;;5033703;28;20478;-69
2022/02/26 05:05:23;;;;;;;12.87;7.57;;;3.60;99.90;;;;;;5033163;28;20945;-69
2022/02/26 05:07:50;;;;;;;12.57;6.93;;;3.60;99.90;;;;;;5033468;28;20457;-69
2022/02/26 05:10:17;;;;;;;8.93;6.60;;;3.70;99.90;;;;;;5033567;28;20481;-68
2022/02/26 05:12:44;;;;;;;12.10;7.23;;;3.60;99.90;;;;;;5034029;28;20493;-68
2022/02/26 05:15:12;;;;;;;13.00;7.93;;;3.60;99.90;;;;;;5033673;28;20480;-69
2022/02/26 05:17:39;;;;;;;12.70;7.10;;;3.60;99.90;;;;;;5033935;28;20453;-68
2022/02/26 05:20:08;;;;;;;12.57;7.70;;;3.70;99.90;;;;;;5033778;28;21017;-68
2022/02/26 05:22:36;;;;;;;16.13;8.03;;;3.70;99.90;;;;;;5034194;28;20445;-68
2022/02/26 05:25:03;;;;;;;15.33;7.87;;;3.60;99.90;;;;;;5033814;28;20441;-68
2022/02/26 05:27:30;;;;;;;10.80;7.10;;;3.60;99.90;;;;;;5033324;28;20455;-68
2022/02/26 05:29:57;;;;;;;12.90;7.40;;;3.60;99.90;;;;;;5033334;28;20461;-68
2022/02/26 05:32:26;;;;;;;13.13;7.37;;;3.60;99.90;;;;;;5033237;28;20564;-68
2022/02/26 05:34:53;;;;;;;13.00;7.60;;;3.60;99.90;;;;;;5032736;28;20535;-69
2022/02/26 05:37:20;;;;;;;10.67;7.60;;;3.60;99.90;;;;;;5033312;28;20476;-68
2022/02/26 05:39:47;;;;;;;10.80;7.77;;;3.60;99.90;;;;;;5033237;28;20460;-68
2022/02/26 05:42:14;;;;;;;14.17;8.40;;;3.60;99.90;;;;;;5032934;28;21106;-68
2022/02/26 05:44:41;;;;;;;14.00;8.43;;;3.60;99.90;;;;;;5032789;28;20445;-68
2022/02/26 05:47:08;;;;;;;16.97;7.90;;;3.50;99.90;;;;;;5032747;28;20961;-68
2022/02/26 05:49:36;;;;;;;12.73;8.50;;;3.60;99.90;;;;;;5032752;28;21082;-68
2022/02/26 05:52:04;;;;;;;14.30;10.17;;;3.50;99.90;;;;;;5032699;28;20922;-68
2022/02/26 05:54:31;;;;;;;11.70;8.17;;;3.50;99.90;;;;;;5032527;28;20506;-68
2022/02/26 05:56:58;;;;;;;15.57;8.53;;;3.50;99.90;;;;;;5032796;28;20443;-68
2022/02/26 05:59:25;;;;;;;14.70;9.40;;;3.50;99.90;;;;;;5032865;28;20472;-69
2022/02/26 06:01:52;;;;;;;16.80;8.87;;;3.60;99.90;;;;;;5032539;28;20536;-68
2022/02/26 06:04:18;;;;;;;11.80;8.50;;;3.60;99.90;;;;;;5032418;28;20448;-68
2022/02/26 06:06:47;;;;;;;13.97;9.20;;;3.60;99.90;;;;;;5032935;28;20871;-68
2022/02/26 06:09:13;;;;;;;16.03;8.70;;;3.50;99.90;;;;;;5032707;28;20449;-68
2022/02/26 06:11:40;;;;;;;13.63;8.17;;;3.50;99.90;;;;;;5032440;28;20998;-68
2022/02/26 06:14:07;;;;;;;13.20;7.60;;;3.50;99.90;;;;;;5032104;28;20445;-69
2022/02/26 06:16:34;;;;;;;14.37;9.87;;;3.50;99.90;;;;;;5029383;28;20828;-68
2022/02/26 06:19:01;;;;;;;14.23;9.90;;;3.50;99.90;;;;;;5031832;28;20455;-68
2022/02/26 06:21:28;;;;;;;13.70;7.50;;;3.60;99.90;;;;;;5038640;28;20464;-68
2022/02/26 06:23:56;;;;;;;11.40;8.63;;;3.60;99.90;;;;;;5038351;28;20552;-68
2022/02/26 06:26:23;;;;;;;14.80;8.43;;;3.60;99.90;;;;;;5031892;28;20449;-68
2022/02/26 06:28:50;;;;;;;13.27;8.60;;;3.60;99.90;;;;;;5031934;28;21270;-70
2022/02/26 06:31:18;;;;;;;11.23;8.60;;;3.60;99.90;;;;;;5032194;28;20835;-68
2022/02/26 06:33:45;;;;;;;13.30;8.43;;;3.60;99.90;;;;;;5031882;28;21032;-68
2022/02/26 06:36:12;;;;;;;19.60;10.10;;;3.60;99.90;;;;;;5031840;28;20455;-69
2022/02/26 06:38:38;;;;;;;12.77;7.40;;;3.70;99.90;;;;;;5031823;28;20464;-68
2022/02/26 06:41:11;;;;;;;20.50;9.57;;;3.70;99.90;;;;;;5031658;28;20465;-68
2022/02/26 06:43:38;;;;;;;15.83;8.70;;;3.70;99.90;;;;;;5031693;28;20950;-68
2022/02/26 06:46:06;;;;;;;12.17;7.83;;;3.70;99.90;;;;;;5031611;28;20965;-69
2022/02/26 06:48:33;;;;;;;13.03;8.33;;;3.70;99.90;;;;;;5031811;28;20452;-69
2022/02/26 06:51:00;;;;;;;16.30;10.27;;;3.70;99.90;;;;;;5031545;28;20533;-68
2022/02/26 06:53:27;;;;;;;13.57;8.87;;;3.70;99.90;;;;;;5031602;28;20697;-68
2022/02/26 06:55:53;;;;;;;18.80;8.87;;;3.80;99.90;;;;;;5030961;28;21022;-68
2022/02/26 06:58:21;;;;;;;16.30;9.77;;;3.80;99.90;;;;;;5031675;28;20457;-68
2022/02/26 07:00:48;;;;;;;13.87;9.17;;;3.80;99.90;;;;;;5031327;28;20464;-69
2022/02/26 07:03:15;;;;;;;12.97;8.63;;;3.90;99.90;;;;;;5031152;28;20460;-69
2022/02/26 07:05:42;;;;;;;13.37;8.37;;;3.90;99.90;;;;;;5031001;28;20444;-68
2022/02/26 07:08:09;;;;;;;16.03;9.30;;;3.90;99.90;;;;;;5031287;28;20535;-68
2022/02/26 07:10:35;;;;;;;19.20;11.57;;;3.90;99.90;;;;;;5030870;28;21040;-69
2022/02/26 07:13:02;;;;;;;18.90;10.47;;;4.00;99.90;;;;;;5031276;28;20480;-68
2022/02/26 07:15:31;;;;;;;16.13;10.53;;;4.00;99.90;;;;;;5029876;28;20958;-69
2022/02/26 07:17:57;;;;;;;15.27;10.27;;;4.00;99.90;;;;;;5031239;28;20456;-68
2022/02/26 07:20:24;;;;;;;15.97;10.20;;;4.10;99.90;;;;;;5031034;28;20555;-69
2022/02/26 07:22:51;;;;;;;18.73;9.27;;;4.10;99.90;;;;;;5031136;28;20440;-69
2022/02/26 07:25:18;;;;;;;12.70;8.80;;;4.20;99.90;;;;;;5030617;28;20477;-68
2022/02/26 07:27:45;;;;;;;19.77;10.27;;;4.20;99.90;;;;;;5030975;28;20568;-69
2022/02/26 07:30:12;;;;;;;14.13;8.90;;;4.30;99.90;;;;;;5030925;28;20512;-68
2022/02/26 07:32:41;;;;;;;15.27;8.80;;;4.40;99.90;;;;;;5030471;28;20485;-69
2022/02/26 07:35:08;;;;;;;17.30;9.87;;;4.50;99.90;;;;;;5030429;28;20938;-68
2022/02/26 07:37:35;;;;;;;11.10;8.43;;;4.60;99.90;;;;;;5030532;28;20448;-69
2022/02/26 07:40:04;;;;;;;15.10;9.23;;;4.60;99.90;;;;;;5030690;28;20471;-68
2022/02/26 07:42:31;;;;;;;13.70;9.27;;;4.60;99.90;;;;;;5030606;28;20464;-68
2022/02/26 07:44:58;;;;;;;13.37;8.23;;;4.60;99.90;;;;;;5030570;28;20480;-68
2022/02/26 07:47:25;;;;;;;19.47;9.87;;;4.60;99.90;;;;;;5030784;28;20441;-69
2022/02/26 07:49:53;;;;;;;17.50;9.83;;;4.60;99.90;;;;;;5030465;28;20465;-69
2022/02/26 07:52:20;;;;;;;17.83;9.70;;;4.60;99.90;;;;;;5030272;28;20483;-70
2022/02/26 07:54:47;;;;;;;14.53;10.27;;;4.70;99.90;;;;;;5030309;28;20965;-68
2022/02/26 07:57:13;;;;;;;13.57;10.13;;;4.70;99.90;;;;;;5030677;28;20455;-68
2022/02/26 07:59:40;;;;;;;14.90;10.60;;;4.80;99.90;;;;;;5029980;28;21065;-68
2022/02/26 08:02:08;;;;;;;24.00;11.10;;;4.80;99.90;;;;;;5024151;28;20449;-68
2022/02/26 08:04:37;;;;;;;17.63;11.10;;;4.80;99.90;;;;;;5026341;28;20445;-68
2022/02/26 08:07:06;;;;;;;17.23;10.63;;;4.80;99.90;;;;;;5025258;28;20452;-68
2022/02/26 08:09:32;;;;;;;19.60;11.37;;;4.80;99.90;;;;;;5029848;28;20555;-69
2022/02/26 08:11:59;;;;;;;13.70;8.90;;;4.90;99.90;;;;;;5030180;28;20479;-69
2022/02/26 08:14:26;;;;;;;13.30;8.70;;;5.00;99.90;;;;;;5029844;28;20461;-68
2022/02/26 08:16:53;;;;;;;13.40;10.00;;;5.00;99.90;;;;;;5028512;28;20541;-69
2022/02/26 08:19:20;;;;;;;14.67;9.33;;;5.00;99.90;;;;;;5018191;28;20821;-69
2022/02/26 08:21:47;;;;;;;16.20;10.30;;;4.90;99.90;;;;;;5024018;28;20540;-70
2022/02/26 08:24:17;;;;;;;16.13;10.13;;;5.00;99.90;;;;;;5029413;28;20472;-69
2022/02/26 08:26:45;;;;;;;16.37;10.67;;;5.00;99.90;;;;;;5029597;28;20934;-69
2022/02/26 08:29:12;;;;;;;17.70;10.60;;;5.20;99.90;;;;;;5019311;28;20449;-68
2022/02/26 08:31:39;;;;;;;14.47;9.27;;;5.30;99.90;;;;;;5026918;28;20471;-68
2022/02/26 08:34:06;;;;;;;14.23;10.57;;;5.30;99.90;;;;;;5022952;28;20500;-69
2022/02/26 08:36:32;;;;;;;21.13;10.37;;;5.30;99.90;;;;;;5020409;28;20536;-68
2022/02/26 08:38:59;;;;;;;19.93;11.33;;;5.30;99.90;;;;;;5018448;28;20464;-68
2022/02/26 08:41:28;;;;;;;18.07;11.43;;;5.30;99.90;;;;;;5023868;28;20480;-68
2022/02/26 08:43:55;;;;;;;20.87;11.37;;;5.40;99.90;;;;;;5022610;28;20440;-68
2022/02/26 08:46:23;;;;;;;20.00;11.87;;;5.50;99.90;;;;;;5024678;28;20440;-67
2022/02/26 08:48:51;;;;;;;17.43;10.97;;;5.50;99.90;;;;;;5026500;28;20453;-68
2022/02/26 08:51:18;;;;;;;17.97;10.43;;;5.40;99.90;;;;;;5023739;28;20477;-69
2022/02/26 08:53:44;;;;;;;16.37;10.20;;;5.40;99.90;;;;;;5029357;28;20568;-68
2022/02/26 08:56:11;;;;;;;13.70;10.13;;;5.40;99.90;;;;;;5028908;28;20447;-68
2022/02/26 08:58:39;;;;;;;17.67;10.73;;;5.50;99.90;;;;;;5025964;28;20463;-68
2022/02/26 09:01:06;;;;;;;13.90;9.57;;;5.50;99.90;;;;;;5027559;28;20490;-67
2022/02/26 09:03:33;;;;;;;16.63;11.50;;;5.50;99.90;;;;;;5027065;28;20467;-68
2022/02/26 09:06:00;;;;;;;16.10;10.90;;;5.60;99.90;;;;;;5027563;28;20449;-68
2022/02/26 09:08:27;;;;;;;14.03;9.77;;;5.60;99.90;;;;;;5026154;28;20456;-67
2022/02/26 09:10:54;;;;;;;19.90;11.57;;;5.80;99.90;;;;;;5022055;28;20576;-67
2022/02/26 09:13:21;;;;;;;17.70;11.67;;;5.80;99.90;;;;;;5029683;28;20484;-68
2022/02/26 09:15:49;;;;;;;16.17;11.57;;;5.90;99.90;;;;;;5029211;28;20453;-68
2022/02/26 09:18:16;;;;;;;15.47;10.57;;;6.00;99.90;;;;;;5029871;28;20539;-68
2022/02/26 09:20:43;;;;;;;15.13;9.33;;;6.00;99.90;;;;;;5028240;28;20465;-68
2022/02/26 09:23:10;;;;;;;16.60;8.90;;;6.00;99.90;;;;;;5030837;28;20479;-68
2022/02/26 09:25:36;;;;;;;10.43;8.67;;;5.90;99.90;;;;;;5027517;28;20488;-68
2022/02/26 09:28:04;;;;;;;15.23;9.20;;;5.80;99.90;;;;;;5029015;28;20445;-68
2022/02/26 09:30:31;;;;;;;16.07;9.37;;;5.80;99.90;;;;;;5026279;28;20469;-69
2022/02/26 09:32:59;;;;;;;15.70;9.70;;;5.80;99.90;;;;;;5025729;28;20486;-67
2022/02/26 09:35:26;;;;;;;11.27;7.93;;;5.80;99.90;;;;;;5026776;28;20449;-67
2022/02/26 09:37:55;;;;;;;16.97;8.17;;;5.70;99.90;;;;;;5027384;28;20840;-67
2022/02/26 09:40:22;;;;;;;13.87;7.57;;;5.70;99.90;;;;;;5032470;28;20896;-67
2022/02/26 09:42:49;;;;;;;12.90;7.30;;;5.70;99.90;;;;;;5035909;28;20445;-68
2022/02/26 09:45:17;;;;;;;12.57;7.27;;;5.80;99.90;;;;;;5031331;28;20549;-68
2022/02/26 09:47:43;;;;;;;12.60;6.50;;;5.80;99.90;;;;;;5033079;28;20483;-68
2022/02/26 09:50:12;;;;;;;10.30;5.97;;;5.90;99.90;;;;;;5032129;28;20477;-67
2022/02/26 09:52:42;;;;;;;13.20;7.07;;;5.90;99.90;;;;;;5035403;28;21288;-67
2022/02/26 09:55:10;;;;;;;10.80;6.27;;;6.10;99.90;;;;;;5031936;28;20453;-67
2022/02/26 09:57:37;;;;;;;11.20;6.73;;;6.10;99.90;;;;;;5031345;28;20812;-68
2022/02/26 10:00:05;;;;;;;16.00;6.83;;;6.10;99.90;;;;;;5026693;28;20463;-68
2022/02/26 10:02:34;;;;;;;12.13;6.40;;;6.10;99.90;;;;;;5032589;28;20449;-69
2022/02/26 10:05:03;;;;;;;9.23;5.30;;;6.10;99.90;;;;;;5035648;28;20458;-67
2022/02/26 10:07:34;;;;;;;9.10;4.70;;;6.10;99.90;;;;;;5033270;28;20513;-67
2022/02/26 10:10:06;;;;;;;9.90;4.17;;;6.00;99.90;;;;;;5032027;28;20469;-67
2022/02/26 10:12:35;;;;;;;6.97;5.07;;;5.90;99.90;;;;;;5029838;28;20584;-67
2022/02/26 10:15:06;;;;;;;12.13;6.13;;;5.70;99.90;;;;;;5032106;28;20445;-67
2022/02/26 10:17:34;;;;;;;13.13;6.10;;;5.60;99.90;;;;;;5031886;28;20450;-68
2022/02/26 10:20:08;;;;;;;11.20;5.40;;;5.50;99.90;;;;;;5031945;28;20461;-68
2022/02/26 10:22:38;;;;;;;8.87;4.73;;;5.50;99.90;;;;;;5032114;28;20441;-68
2022/02/26 10:25:11;;;;;;;7.63;4.07;;;5.60;99.90;;;;;;5031700;28;20460;-68
2022/02/26 10:27:43;;;;;;;5.07;3.33;;;5.70;99.90;;;;;;5030859;28;20449;-68
2022/02/26 10:30:13;;;;;;;10.57;3.67;;;5.80;99.90;;;;;;5024374;28;21212;-68
2022/02/26 10:32:41;;;;;;;13.50;3.70;;;5.90;99.90;;;;;;5026255;28;20517;-68
2022/02/26 10:35:11;;;;;;;5.00;2.90;;;5.90;99.90;;;;;;5023959;28;20458;-68
2022/02/26 10:37:39;;;;;;;5.40;3.30;;;5.90;99.90;;;;;;5027828;28;20879;-68
2022/02/26 10:40:07;;;;;;;6.33;2.57;;;5.90;99.90;;;;;;5029707;28;20480;-68
2022/02/26 10:42:36;;;;;;;12.53;3.20;;;6.00;99.90;;;;;;5027800;28;20528;-68
2022/02/26 10:45:08;;;;;;;8.90;3.40;;;6.10;99.90;;;;;;5030300;28;20448;-68
2022/02/26 10:47:37;;;;;;;8.87;3.80;;;6.30;99.90;;;;;;5031760;28;20967;-69
2022/02/26 10:50:18;;;;;;;11.43;4.10;;;6.40;99.90;;;;;;5031430;28;20833;-68
2022/02/26 10:52:57;;;;;;;5.53;2.60;;;6.50;99.90;;;;;;5031487;28;20571;-68
2022/02/26 10:55:45;;;;;;;6.13;3.90;;;6.70;99.90;;;;;;5031074;28;20544;-69
2022/02/26 10:58:18;;;;;;;8.63;3.07;;;6.80;99.90;;;;;;5031356;28;20531;-68
2022/02/26 11:00:45;;;;;;;10.03;2.97;;;6.90;99.90;;;;;;5028667;28;20554;-68
2022/02/26 11:03:12;;;;;;;12.37;2.73;;;7.00;99.90;;;;;;5028824;28;20824;-68
2022/02/26 11:05:40;;;;;;;6.57;2.97;;;7.20;99.90;;;;;;5030861;28;20456;-69
2022/02/26 11:08:09;;;;;;;6.17;2.30;;;7.50;99.90;;;;;;5021627;28;20467;-68
2022/02/26 11:10:38;;;;;;;8.00;2.70;;;7.90;99.90;;;;;;5024728;28;20539;-69
2022/02/26 11:13:05;;;;;;;7.00;2.87;;;8.00;99.90;;;;;;5030253;28;20487;-68
2022/02/26 11:15:33;;;;;;;7.53;3.70;;;8.20;99.90;;;;;;5026196;28;20457;-69
2022/02/26 11:18:02;;;;;;;6.63;3.40;;;8.20;99.90;;;;;;5029156;28;20490;-69
2022/02/26 11:20:31;;;;;;;8.10;3.60;;;8.10;99.90;;;;;;5028668;28;20509;-69
2022/02/26 11:22:58;;;;;;;9.60;3.40;;;8.10;99.90;;;;;;5030274;28;20814;-69
2022/02/26 11:25:28;;;;;;;6.20;2.70;;;8.00;99.90;;;;;;5029609;28;20574;-69
2022/02/26 11:27:55;;;;;;;7.43;2.80;;;7.90;99.90;;;;;;5029463;28;20494;-70
2022/02/26 11:30:27;;;;;;;8.70;3.87;;;7.90;99.90;;;;;;5025932;28;20503;-68
2022/02/26 11:32:54;;;;;;;6.37;4.00;;;8.00;99.90;;;;;;5028826;28;20855;-69
2022/02/26 11:35:24;;;;;;;6.30;3.03;;;8.00;99.90;;;;;;5025910;28;20449;-68
2022/02/26 11:37:52;;;;;;;8.07;3.20;;;7.90;99.90;;;;;;5030141;28;20464;-68
2022/02/26 11:40:20;;;;;;;9.20;3.20;;;7.90;99.90;;;;;;5030478;28;20500;-67
2022/02/26 11:42:48;;;;;;;6.50;2.40;;;7.90;99.90;;;;;;5030616;28;20969;-68
2022/02/26 11:45:20;;;;;;;7.50;2.90;;;8.10;99.90;;;;;;5030549;28;20444;-68
2022/02/26 11:47:55;;;;;;;7.37;1.97;;;8.30;99.90;;;;;;5029548;28;20448;-68
2022/02/26 11:50:25;;;;;;;7.40;2.43;;;8.50;99.90;;;;;;5029341;28;20522;-68
2022/02/26 11:53:03;;;;;;;8.17;3.00;;;8.40;99.90;;;;;;5030180;28;21166;-67
2022/02/26 11:55:34;;;;;;;7.87;2.53;;;8.40;99.90;;;;;;5030277;28;21212;-68
2022/02/26 11:58:05;;;;;;;9.63;2.87;;;8.20;99.90;;;;;;5030347;28;20445;-68
2022/02/26 12:00:37;;;;;;;6.20;2.50;;;7.90;99.90;;;;;;5030020;28;20554;-68
2022/02/26 12:03:31;;;;;;;11.93;2.60;;;7.60;99.90;;;;;;5029735;28;20473;-68
2022/02/26 12:06:28;;;;;;;9.60;2.73;;;7.40;99.90;;;;;;5016523;28;20444;-68
2022/02/26 12:08:58;;;;;;;6.80;2.77;;;7.10;99.90;;;;;;5029949;28;20821;-68
2022/02/26 12:11:33;;;;;;;8.13;2.73;;;7.00;99.90;;;;;;5030472;28;20989;-68
2022/02/26 12:14:03;;;;;;;9.77;3.50;;;7.00;99.90;;;;;;5014719;28;20575;-68
2022/02/26 12:16:35;;;;;;;11.20;2.90;;;7.10;99.90;;;;;;5022424;28;20624;-69
2022/02/26 12:19:05;;;;;;;5.10;2.67;;;7.10;99.90;;;;;;5030062;28;20456;-68
2022/02/26 12:21:34;;;;;;;6.37;3.30;;;7.20;99.90;;;;;;5030125;28;20875;-68
2022/02/26 12:24:12;;;;;;;7.53;3.07;;;7.50;99.90;;;;;;5030013;28;20470;-67
2022/02/26 12:26:54;;;;;;;10.80;3.60;;;7.80;99.90;;;;;;5029959;28;20551;-67
2022/02/26 12:29:29;;;;;;;11.53;3.33;;;8.20;99.90;;;;;;5030205;28;20524;-69
2022/02/26 12:31:58;;;;;;;5.67;3.13;;;8.50;99.90;;;;;;5029875;28;20424;-68
2022/02/26 12:34:27;;;;;;;7.70;2.77;;;8.40;99.90;;;;;;5030127;28;20486;-67
2022/02/26 12:37:10;;;;;;;8.23;3.90;;;8.30;99.90;;;;;;5029797;28;20445;-67
2022/02/26 12:39:39;;;;;;;9.80;4.33;;;8.20;99.90;;;;;;5029941;28;20563;-69
2022/02/26 12:42:07;;;;;;;9.23;3.40;;;8.10;99.90;;;;;;5027331;28;20536;-68
2022/02/26 12:44:38;;;;;;;10.20;3.30;;;8.00;99.90;;;;;;5028515;28;20448;-68
2022/02/26 12:47:06;;;;;;;9.93;4.30;;;7.80;99.90;;;;;;5009788;28;20457;-68
2022/02/26 12:49:34;;;;;;;18.00;4.40;;;7.80;99.90;;;;;;5009839;28;20476;-68
2022/02/26 12:52:03;;;;;;;10.90;3.07;;;7.70;99.90;;;;;;5009916;28;20550;-68
2022/02/26 12:54:31;;;;;;;7.63;3.50;;;7.70;99.90;;;;;;5009629;28;20481;-68
2022/02/26 12:56:58;;;;;;;6.30;2.73;;;7.60;99.90;;;;;;5009799;28;20877;-68